<?xml version='1.0' encoding='UTF-8'?>
<gpx xmlns="http://www.topografix.com/GPX/1/1" creator="www.balnam.be" version="1.1" xmlns:xsi="http://www.w3.org/2001/XMLSchema-instance" xsi:schemaLocation="http://www.topografix.com/GPX/1/1 http://www.topografix.com/GPX/1/1/gpx.xsd">
<trk>
<name>hezlh1</name>
<cmt>r</cmt>
<desc>Lahamaide Chemin n°1 Ronsart</desc>
<link href="https://chemins.be/lahamaide/chemin/1"/><trkseg>
<trkpt lat="50.705792" lon="3.691102"><time>2026-05-02T18:14:28Z</time></trkpt>
<trkpt lat="50.705822" lon="3.691232"><time>2026-05-02T18:24:28Z</time></trkpt>
<trkpt lat="50.705862" lon="3.691402"><time>2026-05-02T18:34:28Z</time></trkpt>
<trkpt lat="50.705912" lon="3.691592"><time>2026-05-02T18:44:28Z</time></trkpt>
<trkpt lat="50.705942" lon="3.691742"><time>2026-05-02T18:54:28Z</time></trkpt>
<trkpt lat="50.705952" lon="3.691812"><time>2026-05-02T19:04:28Z</time></trkpt>
<trkpt lat="50.705962" lon="3.691872"><time>2026-05-02T19:14:28Z</time></trkpt>
<trkpt lat="50.705972" lon="3.691942"><time>2026-05-02T19:24:28Z</time></trkpt>
<trkpt lat="50.705962" lon="3.692012"><time>2026-05-02T19:34:28Z</time></trkpt>
<trkpt lat="50.705942" lon="3.692102"><time>2026-05-02T19:44:28Z</time></trkpt>
</trkseg></trk>
<trk>
<name>hezlh1</name>
<cmt>q</cmt>
<desc>Lahamaide Chemin n°1 Ronsart</desc>
<link href="https://chemins.be/lahamaide/chemin/1"/><trkseg>
<trkpt lat="50.705942" lon="3.692102"><time>2026-05-02T19:44:28Z</time></trkpt>
<trkpt lat="50.705852" lon="3.692362"><time>2026-05-02T19:54:28Z</time></trkpt>
<trkpt lat="50.705532" lon="3.693342"><time>2026-05-02T20:04:28Z</time></trkpt>
<trkpt lat="50.704762" lon="3.692952"><time>2026-05-02T20:14:28Z</time></trkpt>
<trkpt lat="50.704202" lon="3.694423"><time>2026-05-02T20:24:28Z</time></trkpt>
</trkseg></trk>
<trk>
<name>hezlh1</name>
<cmt>v</cmt>
<desc>Lahamaide Chemin n°1 Ronsart</desc>
<link href="https://chemins.be/lahamaide/chemin/1"/><trkseg>
<trkpt lat="50.704202" lon="3.694423"><time>2026-05-02T20:24:28Z</time></trkpt>
<trkpt lat="50.703394" lon="3.693994"><time>2026-05-02T20:34:28Z</time></trkpt>
</trkseg></trk>
<trk>
<name>hezlh1</name>
<cmt>r</cmt>
<desc>Lahamaide Chemin n°1 Ronsart</desc>
<link href="https://chemins.be/lahamaide/chemin/1"/><trkseg>
<trkpt lat="50.703394" lon="3.693994"><time>2026-05-02T20:34:28Z</time></trkpt>
<trkpt lat="50.701663" lon="3.696665"><time>2026-05-02T20:44:28Z</time></trkpt>
<trkpt lat="50.700848" lon="3.698497"><time>2026-05-02T20:54:28Z</time></trkpt>
<trkpt lat="50.700149" lon="3.699253"><time>2026-05-02T21:04:28Z</time></trkpt>
<trkpt lat="50.698689" lon="3.702433"><time>2026-05-02T21:14:28Z</time></trkpt>
<trkpt lat="50.697934" lon="3.703098"><time>2026-05-02T21:24:28Z</time></trkpt>
<trkpt lat="50.695754" lon="3.706360"><time>2026-05-02T21:34:28Z</time></trkpt>
<trkpt lat="50.694764" lon="3.710767"><time>2026-05-02T21:44:28Z</time></trkpt>
<trkpt lat="50.693144" lon="3.715951"><time>2026-05-02T21:54:28Z</time></trkpt>
<trkpt lat="50.692978" lon="3.716277"><time>2026-05-02T22:04:28Z</time></trkpt>
</trkseg></trk>
<trk>
<name>hezlh1</name>
<cmt>v</cmt>
<desc>Lahamaide Chemin n°1 Ronsart</desc>
<link href="https://chemins.be/lahamaide/chemin/1"/><trkseg>
<trkpt lat="50.692978" lon="3.716277"><time>2026-05-02T22:04:28Z</time></trkpt>
<trkpt lat="50.691597" lon="3.718712"><time>2026-05-02T22:14:28Z</time></trkpt>
<trkpt lat="50.689596" lon="3.721227"><time>2026-05-02T22:24:28Z</time></trkpt>
<trkpt lat="50.688470" lon="3.722781"><time>2026-05-02T22:34:28Z</time></trkpt>
<trkpt lat="50.687410" lon="3.723218"><time>2026-05-02T22:44:28Z</time></trkpt>
<trkpt lat="50.687018" lon="3.723863"><time>2026-05-02T22:54:28Z</time></trkpt>
</trkseg>
</trk>
</gpx>